This is the latest recevied weather packets stored in our database for station/object FREPRT-WX. If no packets are shown the sender has not sent any weather packets the latest 10 day(s).
| Time | Temp. | Humidity | Pressure | Rain* | Wind** | Luminosity | Snow |
|---|---|---|---|---|---|---|---|
| 1777628737 | 2.78° C | 76% | 985.8 hPa | 0 mm | - | - | - |
| 1777627853 | 2.78° C | 81% | 985.5 hPa | 0 mm | - | - | - |
| 1777626937 | 2.78° C | 81% | 985.5 hPa | 0 mm | - | - | - |
| 1777626062 | 2.78° C | 81% | 985.5 hPa | 0 mm | - | - | - |
| 1777625136 | 2.78° C | 80% | 985.4 hPa | 0 mm | - | - | - |
| 1777624251 | 2.78° C | 87% | 985 hPa | 0 mm | - | - | - |
| 1777623336 | 3.89° C | 87% | 985.1 hPa | 0 mm | - | - | - |
| 1777622465 | 3.89° C | 87% | 985.1 hPa | 0 mm | - | - | - |
| 1777621537 | 3.89° C | 82% | 985.5 hPa | 0 mm | - | - | - |
| 1777620655 | 3.89° C | 82% | 985.5 hPa | 0 mm | - | - | - |
| 1777619736 | 3.89° C | 82% | 985.5 hPa | 0 mm | - | - | - |
| 1777618864 | 4.44° C | 82% | 985.5 hPa | 0 mm | - | - | - |
| 1777617937 | 4.44° C | 79% | 985.9 hPa | 0 mm | - | - | - |
| 1777617056 | 4.44° C | 85% | 985 hPa | 0 mm | - | - | - |
| 1777616136 | 4.44° C | 85% | 985 hPa | 0 mm | - | - | - |
| 1777615272 | 4.44° C | 85% | 985 hPa | 0 mm | - | - | - |
| 1777614336 | 4.44° C | 80% | 986.5 hPa | 0 mm | - | - | - |
| 1777613455 | 4.44° C | 78% | 985.9 hPa | 0 mm | - | - | - |
| 1777612539 | 5° C | 78% | 985.9 hPa | 0 mm | - | - | - |
| 1777611665 | 5° C | 78% | 985.9 hPa | 0 mm | - | - | - |
| 1777610737 | 5° C | 70% | 987 hPa | 0 mm | - | - | - |
| 1777609856 | 5° C | 71% | 986 hPa | 0 mm | - | - | - |
| 1777608938 | 5° C | 71% | 986 hPa | 0 mm | - | - | - |
| 1777608067 | 5° C | 71% | 986 hPa | 0 mm | - | - | - |
| 1777607138 | 5° C | 69% | 986.1 hPa | 0 mm | - | - | - |
* Rain latest hour (hover to see other rain measurements)
** Current wind speed in m/s (hover to see current wind gust speed)